sensor_id;sensor_type;location;lat;lon;timestamp;P1;durP1;ratioP1;P2;durP2;ratioP2
82005;SDS011;71529;47.484;19.064;2024-03-25T00:01:52;2.30;;;2.03;;
82005;SDS011;71529;47.484;19.064;2024-03-25T00:04:18;1.90;;;1.70;;
82005;SDS011;71529;47.484;19.064;2024-03-25T00:06:45;2.28;;;2.08;;
82005;SDS011;71529;47.484;19.064;2024-03-25T00:09:14;2.78;;;2.22;;
82005;SDS011;71529;47.484;19.064;2024-03-25T00:11:40;2.63;;;1.85;;
82005;SDS011;71529;47.484;19.064;2024-03-25T00:14:07;2.10;;;1.90;;
82005;SDS011;71529;47.484;19.064;2024-03-25T00:16:34;3.58;;;1.95;;
82005;SDS011;71529;47.484;19.064;2024-03-25T00:19:01;2.53;;;2.05;;
82005;SDS011;71529;47.484;19.064;2024-03-25T00:21:27;3.00;;;2.30;;
82005;SDS011;71529;47.484;19.064;2024-03-25T00:23:54;2.08;;;1.98;;
82005;SDS011;71529;47.484;19.064;2024-03-25T00:26:23;2.92;;;2.10;;
82005;SDS011;71529;47.484;19.064;2024-03-25T00:28:49;3.15;;;1.92;;
82005;SDS011;71529;47.484;19.064;2024-03-25T00:31:15;2.17;;;1.98;;
82005;SDS011;71529;47.484;19.064;2024-03-25T00:33:42;3.25;;;2.00;;
82005;SDS011;71529;47.484;19.064;2024-03-25T00:36:08;4.07;;;2.35;;
82005;SDS011;71529;47.484;19.064;2024-03-25T00:38:35;2.58;;;1.75;;
82005;SDS011;71529;47.484;19.064;2024-03-25T00:41:01;2.33;;;1.90;;
82005;SDS011;71529;47.484;19.064;2024-03-25T00:43:30;3.75;;;2.10;;
82005;SDS011;71529;47.484;19.064;2024-03-25T00:45:56;2.83;;;2.10;;
82005;SDS011;71529;47.484;19.064;2024-03-25T00:48:23;3.17;;;2.00;;
82005;SDS011;71529;47.484;19.064;2024-03-25T00:50:49;2.55;;;1.65;;
82005;SDS011;71529;47.484;19.064;2024-03-25T00:53:16;2.78;;;2.10;;
82005;SDS011;71529;47.484;19.064;2024-03-25T00:55:42;1.90;;;1.80;;
82005;SDS011;71529;47.484;19.064;2024-03-25T00:58:09;1.90;;;1.80;;
82005;SDS011;71529;47.484;19.064;2024-03-25T01:00:38;2.65;;;2.35;;
82005;SDS011;71529;47.484;19.064;2024-03-25T01:03:04;2.00;;;1.80;;
82005;SDS011;71529;47.484;19.064;2024-03-25T01:05:31;2.00;;;1.80;;
82005;SDS011;71529;47.484;19.064;2024-03-25T01:07:58;2.08;;;1.98;;
82005;SDS011;71529;47.484;19.064;2024-03-25T01:10:24;2.58;;;1.73;;
82005;SDS011;71529;47.484;19.064;2024-03-25T01:12:50;1.80;;;1.70;;
82005;SDS011;71529;47.484;19.064;2024-03-25T01:15:16;1.70;;;1.60;;
82005;SDS011;71529;47.484;19.064;2024-03-25T01:17:45;2.35;;;1.75;;
82005;SDS011;71529;47.484;19.064;2024-03-25T01:20:11;3.17;;;2.00;;
82005;SDS011;71529;47.484;19.064;2024-03-25T01:22:38;1.88;;;1.77;;
82005;SDS011;71529;47.484;19.064;2024-03-25T01:25:04;2.63;;;1.98;;
82005;SDS011;71529;47.484;19.064;2024-03-25T01:27:31;3.67;;;1.88;;
82005;SDS011;71529;47.484;19.064;2024-03-25T01:29:57;5.35;;;4.20;;
82005;SDS011;71529;47.484;19.064;2024-03-25T01:32:23;11.52;;;8.25;;
82005;SDS011;71529;47.484;19.064;2024-03-25T01:34:53;12.25;;;9.13;;
82005;SDS011;71529;47.484;19.064;2024-03-25T01:37:19;15.38;;;7.97;;
82005;SDS011;71529;47.484;19.064;2024-03-25T01:39:45;6.13;;;3.97;;
82005;SDS011;71529;47.484;19.064;2024-03-25T01:42:11;5.70;;;3.97;;
82005;SDS011;71529;47.484;19.064;2024-03-25T01:44:39;7.38;;;4.28;;
82005;SDS011;71529;47.484;19.064;2024-03-25T01:47:06;2.60;;;2.40;;
82005;SDS011;71529;47.484;19.064;2024-03-25T01:49:32;5.28;;;4.03;;
82005;SDS011;71529;47.484;19.064;2024-03-25T01:52:01;3.28;;;2.38;;
82005;SDS011;71529;47.484;19.064;2024-03-25T01:54:28;3.45;;;2.55;;
82005;SDS011;71529;47.484;19.064;2024-03-25T01:56:54;4.00;;;2.92;;
82005;SDS011;71529;47.484;19.064;2024-03-25T01:59:21;2.30;;;1.92;;
82005;SDS011;71529;47.484;19.064;2024-03-25T02:01:47;2.00;;;1.80;;
82005;SDS011;71529;47.484;19.064;2024-03-25T02:04:14;1.63;;;1.52;;
82005;SDS011;71529;47.484;19.064;2024-03-25T02:06:40;3.10;;;1.77;;
82005;SDS011;71529;47.484;19.064;2024-03-25T02:09:11;2.60;;;1.88;;
82005;SDS011;71529;47.484;19.064;2024-03-25T02:11:39;1.77;;;1.67;;
82005;SDS011;71529;47.484;19.064;2024-03-25T02:14:06;3.15;;;2.05;;
82005;SDS011;71529;47.484;19.064;2024-03-25T02:16:33;1.60;;;1.50;;
82005;SDS011;71529;47.484;19.064;2024-03-25T02:19:00;3.42;;;2.25;;
82005;SDS011;71529;47.484;19.064;2024-03-25T02:21:26;1.88;;;1.60;;
82005;SDS011;71529;47.484;19.064;2024-03-25T02:23:52;1.60;;;1.50;;
82005;SDS011;71529;47.484;19.064;2024-03-25T02:26:25;2.47;;;1.77;;
82005;SDS011;71529;47.484;19.064;2024-03-25T02:28:51;1.75;;;1.60;;
82005;SDS011;71529;47.484;19.064;2024-03-25T02:31:17;1.70;;;1.60;;
82005;SDS011;71529;47.484;19.064;2024-03-25T02:33:44;1.75;;;1.65;;
82005;SDS011;71529;47.484;19.064;2024-03-25T02:36:10;1.80;;;1.70;;
82005;SDS011;71529;47.484;19.064;2024-03-25T02:38:37;1.83;;;1.70;;
82005;SDS011;71529;47.484;19.064;2024-03-25T02:41:04;2.42;;;1.75;;
82005;SDS011;71529;47.484;19.064;2024-03-25T02:43:33;1.83;;;1.73;;
82005;SDS011;71529;47.484;19.064;2024-03-25T02:46:00;2.63;;;1.58;;
82005;SDS011;71529;47.484;19.064;2024-03-25T02:48:26;3.15;;;1.40;;
82005;SDS011;71529;47.484;19.064;2024-03-25T02:50:53;2.22;;;1.63;;
82005;SDS011;71529;47.484;19.064;2024-03-25T02:53:20;1.60;;;1.50;;
82005;SDS011;71529;47.484;19.064;2024-03-25T02:55:46;4.40;;;3.50;;
82005;SDS011;71529;47.484;19.064;2024-03-25T02:58:12;3.83;;;2.65;;
82005;SDS011;71529;47.484;19.064;2024-03-25T03:00:41;9.30;;;4.75;;
82005;SDS011;71529;47.484;19.064;2024-03-25T03:03:07;9.10;;;3.90;;
82005;SDS011;71529;47.484;19.064;2024-03-25T03:05:34;3.40;;;2.45;;
82005;SDS011;71529;47.484;19.064;2024-03-25T03:08:00;2.58;;;1.85;;
82005;SDS011;71529;47.484;19.064;2024-03-25T03:10:27;2.28;;;1.98;;
82005;SDS011;71529;47.484;19.064;2024-03-25T03:12:53;3.65;;;2.88;;
82005;SDS011;71529;47.484;19.064;2024-03-25T03:15:19;8.50;;;3.58;;
82005;SDS011;71529;47.484;19.064;2024-03-25T03:17:49;5.13;;;3.70;;
82005;SDS011;71529;47.484;19.064;2024-03-25T03:20:15;4.25;;;3.40;;
82005;SDS011;71529;47.484;19.064;2024-03-25T03:22:42;2.35;;;2.10;;
82005;SDS011;71529;47.484;19.064;2024-03-25T03:25:08;2.30;;;2.10;;
82005;SDS011;71529;47.484;19.064;2024-03-25T03:27:35;4.60;;;3.17;;
82005;SDS011;71529;47.484;19.064;2024-03-25T03:30:01;2.45;;;2.25;;
82005;SDS011;71529;47.484;19.064;2024-03-25T03:32:27;3.42;;;1.88;;
82005;SDS011;71529;47.484;19.064;2024-03-25T03:34:56;2.08;;;1.88;;
82005;SDS011;71529;47.484;19.064;2024-03-25T03:37:23;3.22;;;2.28;;
82005;SDS011;71529;47.484;19.064;2024-03-25T03:39:49;1.92;;;1.83;;
82005;SDS011;71529;47.484;19.064;2024-03-25T03:42:16;1.67;;;1.58;;
82005;SDS011;71529;47.484;19.064;2024-03-25T03:44:42;2.25;;;1.60;;
82005;SDS011;71529;47.484;19.064;2024-03-25T03:47:08;2.00;;;1.70;;
82005;SDS011;71529;47.484;19.064;2024-03-25T03:49:35;1.70;;;1.50;;
82005;SDS011;71529;47.484;19.064;2024-03-25T03:52:04;1.42;;;1.35;;
82005;SDS011;71529;47.484;19.064;2024-03-25T03:54:30;3.05;;;1.80;;
82005;SDS011;71529;47.484;19.064;2024-03-25T03:56:57;1.70;;;1.60;;
82005;SDS011;71529;47.484;19.064;2024-03-25T03:59:23;2.72;;;1.60;;
82005;SDS011;71529;47.484;19.064;2024-03-25T04:01:49;2.80;;;1.40;;
82005;SDS011;71529;47.484;19.064;2024-03-25T04:04:16;2.92;;;1.60;;
82005;SDS011;71529;47.484;19.064;2024-03-25T04:06:42;1.80;;;1.70;;
82005;SDS011;71529;47.484;19.064;2024-03-25T04:09:10;1.83;;;1.58;;
82005;SDS011;71529;47.484;19.064;2024-03-25T04:11:37;2.08;;;1.60;;
82005;SDS011;71529;47.484;19.064;2024-03-25T04:14:04;1.80;;;1.63;;
82005;SDS011;71529;47.484;19.064;2024-03-25T04:16:30;2.22;;;1.40;;
82005;SDS011;71529;47.484;19.064;2024-03-25T04:18:57;2.88;;;1.75;;
82005;SDS011;71529;47.484;19.064;2024-03-25T04:21:23;2.42;;;1.50;;
82005;SDS011;71529;47.484;19.064;2024-03-25T04:23:49;2.30;;;1.65;;
82005;SDS011;71529;47.484;19.064;2024-03-25T04:26:18;1.67;;;1.30;;
82005;SDS011;71529;47.484;19.064;2024-03-25T04:28:45;1.73;;;1.40;;
82005;SDS011;71529;47.484;19.064;2024-03-25T04:31:11;1.38;;;1.30;;
82005;SDS011;71529;47.484;19.064;2024-03-25T04:33:38;2.50;;;1.67;;
82005;SDS011;71529;47.484;19.064;2024-03-25T04:36:04;2.05;;;1.70;;
82005;SDS011;71529;47.484;19.064;2024-03-25T04:38:32;1.65;;;1.50;;
82005;SDS011;71529;47.484;19.064;2024-03-25T04:40:58;4.38;;;1.60;;
82005;SDS011;71529;47.484;19.064;2024-03-25T04:43:27;2.00;;;1.80;;
82005;SDS011;71529;47.484;19.064;2024-03-25T04:45:53;2.05;;;1.52;;
82005;SDS011;71529;47.484;19.064;2024-03-25T04:48:20;1.50;;;1.40;;
82005;SDS011;71529;47.484;19.064;2024-03-25T04:50:47;2.60;;;1.77;;
82005;SDS011;71529;47.484;19.064;2024-03-25T04:53:13;1.70;;;1.60;;
82005;SDS011;71529;47.484;19.064;2024-03-25T04:55:40;4.93;;;2.90;;
82005;SDS011;71529;47.484;19.064;2024-03-25T04:58:06;2.70;;;2.28;;
82005;SDS011;71529;47.484;19.064;2024-03-25T05:00:35;1.80;;;1.70;;
82005;SDS011;71529;47.484;19.064;2024-03-25T05:03:01;2.17;;;1.77;;
82005;SDS011;71529;47.484;19.064;2024-03-25T05:05:28;1.88;;;1.48;;
82005;SDS011;71529;47.484;19.064;2024-03-25T05:07:54;2.35;;;1.50;;
82005;SDS011;71529;47.484;19.064;2024-03-25T05:10:20;2.08;;;1.77;;
82005;SDS011;71529;47.484;19.064;2024-03-25T05:12:47;3.08;;;2.00;;
82005;SDS011;71529;47.484;19.064;2024-03-25T05:15:14;2.63;;;2.13;;
82005;SDS011;71529;47.484;19.064;2024-03-25T05:17:44;4.45;;;2.10;;
82005;SDS011;71529;47.484;19.064;2024-03-25T05:20:10;3.58;;;1.98;;
82005;SDS011;71529;47.484;19.064;2024-03-25T05:22:37;3.20;;;2.30;;
82005;SDS011;71529;47.484;19.064;2024-03-25T05:25:04;3.42;;;2.05;;
82005;SDS011;71529;47.484;19.064;2024-03-25T05:27:31;3.70;;;2.00;;
82005;SDS011;71529;47.484;19.064;2024-03-25T05:29:57;3.83;;;2.30;;
82005;SDS011;71529;47.484;19.064;2024-03-25T05:32:23;5.07;;;2.28;;
82005;SDS011;71529;47.484;19.064;2024-03-25T05:34:52;2.22;;;2.00;;
82005;SDS011;71529;47.484;19.064;2024-03-25T05:37:19;2.80;;;2.03;;
82005;SDS011;71529;47.484;19.064;2024-03-25T05:39:45;3.72;;;2.25;;
82005;SDS011;71529;47.484;19.064;2024-03-25T05:42:11;3.42;;;2.88;;
82005;SDS011;71529;47.484;19.064;2024-03-25T05:44:38;4.80;;;3.20;;
82005;SDS011;71529;47.484;19.064;2024-03-25T05:47:05;3.33;;;2.58;;
82005;SDS011;71529;47.484;19.064;2024-03-25T05:49:31;3.13;;;2.20;;
82005;SDS011;71529;47.484;19.064;2024-03-25T05:52:00;2.47;;;2.10;;
82005;SDS011;71529;47.484;19.064;2024-03-25T05:54:28;2.22;;;2.03;;
82005;SDS011;71529;47.484;19.064;2024-03-25T05:56:54;3.00;;;2.20;;
82005;SDS011;71529;47.484;19.064;2024-03-25T05:59:20;1.90;;;1.80;;
82005;SDS011;71529;47.484;19.064;2024-03-25T06:01:47;3.22;;;2.22;;
82005;SDS011;71529;47.484;19.064;2024-03-25T06:04:13;5.70;;;2.38;;
82005;SDS011;71529;47.484;19.064;2024-03-25T06:06:40;2.38;;;2.05;;
82005;SDS011;71529;47.484;19.064;2024-03-25T06:09:09;3.13;;;2.30;;
82005;SDS011;71529;47.484;19.064;2024-03-25T06:11:36;2.42;;;1.90;;
82005;SDS011;71529;47.484;19.064;2024-03-25T06:14:03;2.35;;;1.98;;
82005;SDS011;71529;47.484;19.064;2024-03-25T06:16:29;2.67;;;2.33;;
82005;SDS011;71529;47.484;19.064;2024-03-25T06:18:55;2.72;;;2.00;;
82005;SDS011;71529;47.484;19.064;2024-03-25T06:21:22;3.08;;;2.00;;
82005;SDS011;71529;47.484;19.064;2024-03-25T06:23:48;2.47;;;2.13;;
82005;SDS011;71529;47.484;19.064;2024-03-25T06:26:17;1.98;;;1.88;;
82005;SDS011;71529;47.484;19.064;2024-03-25T06:28:44;3.33;;;2.10;;
82005;SDS011;71529;47.484;19.064;2024-03-25T06:31:11;2.63;;;2.10;;
82005;SDS011;71529;47.484;19.064;2024-03-25T06:33:52;2.10;;;1.90;;
82005;SDS011;71529;47.484;19.064;2024-03-25T06:36:34;2.13;;;1.88;;
82005;SDS011;71529;47.484;19.064;2024-03-25T06:39:01;5.00;;;3.20;;
82005;SDS011;71529;47.484;19.064;2024-03-25T06:41:30;4.55;;;2.40;;
82005;SDS011;71529;47.484;19.064;2024-03-25T06:43:56;5.05;;;2.33;;
82005;SDS011;71529;47.484;19.064;2024-03-25T06:46:23;3.25;;;2.20;;
82005;SDS011;71529;47.484;19.064;2024-03-25T06:48:49;3.10;;;1.98;;
82005;SDS011;71529;47.484;19.064;2024-03-25T06:51:16;3.38;;;2.50;;
82005;SDS011;71529;47.484;19.064;2024-03-25T06:53:42;3.65;;;2.28;;
82005;SDS011;71529;47.484;19.064;2024-03-25T06:56:09;3.70;;;2.45;;
82005;SDS011;71529;47.484;19.064;2024-03-25T06:58:38;2.60;;;2.10;;
82005;SDS011;71529;47.484;19.064;2024-03-25T07:01:05;2.25;;;1.90;;
82005;SDS011;71529;47.484;19.064;2024-03-25T07:03:33;2.70;;;2.00;;
82005;SDS011;71529;47.484;19.064;2024-03-25T07:06:00;2.55;;;2.10;;
82005;SDS011;71529;47.484;19.064;2024-03-25T07:08:27;2.75;;;2.00;;
82005;SDS011;71529;47.484;19.064;2024-03-25T07:10:54;2.67;;;1.98;;
82005;SDS011;71529;47.484;19.064;2024-03-25T07:13:20;3.05;;;1.92;;
82005;SDS011;71529;47.484;19.064;2024-03-25T07:15:49;3.05;;;1.98;;
82005;SDS011;71529;47.484;19.064;2024-03-25T07:18:16;12.07;;;2.60;;
82005;SDS011;71529;47.484;19.064;2024-03-25T07:20:43;4.70;;;2.25;;
82005;SDS011;71529;47.484;19.064;2024-03-25T07:23:09;29.77;;;4.03;;
82005;SDS011;71529;47.484;19.064;2024-03-25T07:25:36;66.05;;;4.97;;
82005;SDS011;71529;47.484;19.064;2024-03-25T07:28:03;6.93;;;2.53;;
82005;SDS011;71529;47.484;19.064;2024-03-25T07:30:29;18.83;;;2.80;;
82005;SDS011;71529;47.484;19.064;2024-03-25T07:32:59;6.95;;;2.58;;
82005;SDS011;71529;47.484;19.064;2024-03-25T07:35:25;5.68;;;2.55;;
82005;SDS011;71529;47.484;19.064;2024-03-25T07:37:51;4.43;;;2.42;;
82005;SDS011;71529;47.484;19.064;2024-03-25T07:40:18;8.25;;;2.92;;
82005;SDS011;71529;47.484;19.064;2024-03-25T07:42:45;3.80;;;1.90;;
82005;SDS011;71529;47.484;19.064;2024-03-25T07:45:11;5.65;;;1.98;;
82005;SDS011;71529;47.484;19.064;2024-03-25T07:47:38;10.38;;;2.13;;
82005;SDS011;71529;47.484;19.064;2024-03-25T07:50:07;3.35;;;2.20;;
82005;SDS011;71529;47.484;19.064;2024-03-25T07:52:34;2.40;;;1.83;;
82005;SDS011;71529;47.484;19.064;2024-03-25T07:55:01;4.22;;;2.50;;
82005;SDS011;71529;47.484;19.064;2024-03-25T07:57:28;2.42;;;1.73;;
82005;SDS011;71529;47.484;19.064;2024-03-25T07:59:54;2.40;;;1.83;;
82005;SDS011;71529;47.484;19.064;2024-03-25T08:02:20;2.10;;;1.90;;
82005;SDS011;71529;47.484;19.064;2024-03-25T08:04:47;3.05;;;2.60;;
82005;SDS011;71529;47.484;19.064;2024-03-25T08:07:16;4.07;;;2.72;;
82005;SDS011;71529;47.484;19.064;2024-03-25T08:09:42;2.80;;;2.20;;
82005;SDS011;71529;47.484;19.064;2024-03-25T08:12:08;3.22;;;2.08;;
82005;SDS011;71529;47.484;19.064;2024-03-25T08:14:35;3.33;;;2.28;;
82005;SDS011;71529;47.484;19.064;2024-03-25T08:17:01;2.80;;;1.85;;
82005;SDS011;71529;47.484;19.064;2024-03-25T08:19:27;2.15;;;1.85;;
82005;SDS011;71529;47.484;19.064;2024-03-25T08:21:53;3.22;;;2.00;;
82005;SDS011;71529;47.484;19.064;2024-03-25T08:24:22;2.35;;;1.90;;
82005;SDS011;71529;47.484;19.064;2024-03-25T08:26:48;2.88;;;2.10;;
82005;SDS011;71529;47.484;19.064;2024-03-25T08:29:15;2.97;;;1.85;;
82005;SDS011;71529;47.484;19.064;2024-03-25T08:31:41;1.73;;;1.63;;
82005;SDS011;71529;47.484;19.064;2024-03-25T08:34:07;2.78;;;2.08;;
82005;SDS011;71529;47.484;19.064;2024-03-25T08:36:33;2.92;;;2.10;;
82005;SDS011;71529;47.484;19.064;2024-03-25T08:38:59;2.22;;;2.03;;
82005;SDS011;71529;47.484;19.064;2024-03-25T08:41:28;2.17;;;1.83;;
82005;SDS011;71529;47.484;19.064;2024-03-25T08:43:55;1.92;;;1.80;;
82005;SDS011;71529;47.484;19.064;2024-03-25T08:46:21;3.03;;;2.03;;
82005;SDS011;71529;47.484;19.064;2024-03-25T08:48:47;9.98;;;6.00;;
82005;SDS011;71529;47.484;19.064;2024-03-25T08:51:14;8.43;;;4.65;;
82005;SDS011;71529;47.484;19.064;2024-03-25T08:53:40;7.15;;;3.75;;
82005;SDS011;71529;47.484;19.064;2024-03-25T08:56:06;7.05;;;3.63;;
82005;SDS011;71529;47.484;19.064;2024-03-25T08:58:36;3.58;;;2.78;;
82005;SDS011;71529;47.484;19.064;2024-03-25T09:01:03;2.53;;;2.20;;
82005;SDS011;71529;47.484;19.064;2024-03-25T09:03:29;4.25;;;2.40;;
82005;SDS011;71529;47.484;19.064;2024-03-25T09:05:55;2.53;;;1.90;;
82005;SDS011;71529;47.484;19.064;2024-03-25T09:08:21;2.20;;;1.95;;
82005;SDS011;71529;47.484;19.064;2024-03-25T09:10:47;1.80;;;1.70;;
82005;SDS011;71529;47.484;19.064;2024-03-25T09:13:28;1.77;;;1.67;;
82005;SDS011;71529;47.484;19.064;2024-03-25T09:15:57;2.53;;;1.80;;
82005;SDS011;71529;47.484;19.064;2024-03-25T09:18:23;1.65;;;1.55;;
82005;SDS011;71529;47.484;19.064;2024-03-25T09:20:50;1.98;;;1.88;;
82005;SDS011;71529;47.484;19.064;2024-03-25T09:23:17;4.88;;;2.10;;
82005;SDS011;71529;47.484;19.064;2024-03-25T09:25:52;3.60;;;2.08;;
82005;SDS011;71529;47.484;19.064;2024-03-25T09:28:18;4.57;;;1.80;;
82005;SDS011;71529;47.484;19.064;2024-03-25T09:30:45;2.47;;;1.90;;
82005;SDS011;71529;47.484;19.064;2024-03-25T09:33:14;4.47;;;2.88;;
82005;SDS011;71529;47.484;19.064;2024-03-25T09:35:40;3.47;;;2.80;;
82005;SDS011;71529;47.484;19.064;2024-03-25T09:38:07;19.45;;;10.68;;
82005;SDS011;71529;47.484;19.064;2024-03-25T09:40:34;4.38;;;2.72;;
82005;SDS011;71529;47.484;19.064;2024-03-25T09:43:02;3.40;;;2.20;;
82005;SDS011;71529;47.484;19.064;2024-03-25T09:45:29;2.90;;;2.10;;
82005;SDS011;71529;47.484;19.064;2024-03-25T09:47:56;1.98;;;1.88;;
82005;SDS011;71529;47.484;19.064;2024-03-25T09:50:24;2.88;;;2.00;;
82005;SDS011;71529;47.484;19.064;2024-03-25T09:52:51;4.32;;;1.92;;
82005;SDS011;71529;47.484;19.064;2024-03-25T09:55:17;2.45;;;2.08;;
82005;SDS011;71529;47.484;19.064;2024-03-25T09:57:43;5.22;;;2.22;;
82005;SDS011;71529;47.484;19.064;2024-03-25T10:00:10;3.20;;;2.08;;
82005;SDS011;71529;47.484;19.064;2024-03-25T10:02:38;3.17;;;2.20;;
82005;SDS011;71529;47.484;19.064;2024-03-25T10:05:05;3.35;;;2.13;;
82005;SDS011;71529;47.484;19.064;2024-03-25T10:07:35;4.32;;;1.92;;
82005;SDS011;71529;47.484;19.064;2024-03-25T10:10:03;2.70;;;2.00;;
82005;SDS011;71529;47.484;19.064;2024-03-25T10:12:31;3.15;;;2.00;;
82005;SDS011;71529;47.484;19.064;2024-03-25T10:14:58;3.72;;;2.15;;
82005;SDS011;71529;47.484;19.064;2024-03-25T10:17:25;3.33;;;2.80;;
82005;SDS011;71529;47.484;19.064;2024-03-25T10:19:53;2.42;;;2.20;;
82005;SDS011;71529;47.484;19.064;2024-03-25T10:22:19;2.75;;;1.90;;
82005;SDS011;71529;47.484;19.064;2024-03-25T10:24:48;4.68;;;2.28;;
82005;SDS011;71529;47.484;19.064;2024-03-25T10:27:18;2.45;;;1.80;;
82005;SDS011;71529;47.484;19.064;2024-03-25T10:29:45;3.03;;;2.03;;
82005;SDS011;71529;47.484;19.064;2024-03-25T10:32:12;2.13;;;1.92;;
82005;SDS011;71529;47.484;19.064;2024-03-25T10:34:39;2.78;;;1.63;;
82005;SDS011;71529;47.484;19.064;2024-03-25T10:37:06;3.95;;;1.90;;
82005;SDS011;71529;47.484;19.064;2024-03-25T10:39:38;3.63;;;1.77;;
82005;SDS011;71529;47.484;19.064;2024-03-25T10:42:08;3.08;;;1.88;;
82005;SDS011;71529;47.484;19.064;2024-03-25T10:44:38;3.77;;;2.10;;
82005;SDS011;71529;47.484;19.064;2024-03-25T10:47:05;2.15;;;1.92;;
82005;SDS011;71529;47.484;19.064;2024-03-25T10:49:34;2.08;;;1.80;;
82005;SDS011;71529;47.484;19.064;2024-03-25T10:52:09;1.92;;;1.80;;
82005;SDS011;71529;47.484;19.064;2024-03-25T10:54:37;2.05;;;1.77;;
82005;SDS011;71529;47.484;19.064;2024-03-25T10:57:08;3.55;;;2.05;;
82005;SDS011;71529;47.484;19.064;2024-03-25T10:59:35;6.25;;;1.90;;
82005;SDS011;71529;47.484;19.064;2024-03-25T11:02:03;3.63;;;2.22;;
82005;SDS011;71529;47.484;19.064;2024-03-25T11:04:30;2.05;;;1.90;;
82005;SDS011;71529;47.484;19.064;2024-03-25T11:07:06;3.13;;;1.98;;
82005;SDS011;71529;47.484;19.064;2024-03-25T11:09:33;2.35;;;2.00;;
82005;SDS011;71529;47.484;19.064;2024-03-25T11:11:59;4.40;;;1.92;;
82005;SDS011;71529;47.484;19.064;2024-03-25T11:14:28;2.83;;;1.75;;
82005;SDS011;71529;47.484;19.064;2024-03-25T11:16:55;3.05;;;2.10;;
82005;SDS011;71529;47.484;19.064;2024-03-25T11:19:25;1.73;;;1.60;;
82005;SDS011;71529;47.484;19.064;2024-03-25T11:21:52;3.17;;;2.00;;
82005;SDS011;71529;47.484;19.064;2024-03-25T11:24:26;3.60;;;1.98;;
82005;SDS011;71529;47.484;19.064;2024-03-25T11:26:53;3.88;;;1.90;;
82005;SDS011;71529;47.484;19.064;2024-03-25T11:29:20;2.78;;;1.80;;
82005;SDS011;71529;47.484;19.064;2024-03-25T11:31:49;2.53;;;1.90;;
82005;SDS011;71529;47.484;19.064;2024-03-25T11:34:16;1.85;;;1.75;;
82005;SDS011;71529;47.484;19.064;2024-03-25T11:36:42;2.63;;;1.80;;
82005;SDS011;71529;47.484;19.064;2024-03-25T11:39:08;3.30;;;2.03;;
82005;SDS011;71529;47.484;19.064;2024-03-25T11:41:35;9.57;;;1.90;;
82005;SDS011;71529;47.484;19.064;2024-03-25T11:44:05;4.88;;;1.90;;
82005;SDS011;71529;47.484;19.064;2024-03-25T11:46:32;3.80;;;1.90;;
82005;SDS011;71529;47.484;19.064;2024-03-25T11:49:00;2.33;;;1.70;;
82005;SDS011;71529;47.484;19.064;2024-03-25T11:51:27;7.15;;;1.90;;
82005;SDS011;71529;47.484;19.064;2024-03-25T11:53:54;2.08;;;1.85;;
82005;SDS011;71529;47.484;19.064;2024-03-25T11:56:20;1.77;;;1.67;;
82005;SDS011;71529;47.484;19.064;2024-03-25T11:58:47;1.73;;;1.63;;
82005;SDS011;71529;47.484;19.064;2024-03-25T12:01:14;3.97;;;1.52;;
82005;SDS011;71529;47.484;19.064;2024-03-25T12:03:41;1.77;;;1.67;;
82005;SDS011;71529;47.484;19.064;2024-03-25T12:06:10;2.33;;;1.77;;
82005;SDS011;71529;47.484;19.064;2024-03-25T12:08:36;1.83;;;1.70;;
82005;SDS011;71529;47.484;19.064;2024-03-25T12:11:02;1.95;;;1.85;;
82005;SDS011;71529;47.484;19.064;2024-03-25T12:13:43;3.50;;;2.17;;
82005;SDS011;71529;47.484;19.064;2024-03-25T12:16:10;2.67;;;2.10;;
82005;SDS011;71529;47.484;19.064;2024-03-25T12:18:39;2.38;;;2.17;;
82005;SDS011;71529;47.484;19.064;2024-03-25T12:21:09;3.22;;;2.08;;
82005;SDS011;71529;47.484;19.064;2024-03-25T12:23:36;4.40;;;2.67;;
82005;SDS011;71529;47.484;19.064;2024-03-25T12:26:03;5.18;;;2.65;;
82005;SDS011;71529;47.484;19.064;2024-03-25T12:28:30;7.72;;;2.40;;
82005;SDS011;71529;47.484;19.064;2024-03-25T12:30:57;9.02;;;2.40;;
82005;SDS011;71529;47.484;19.064;2024-03-25T12:33:23;4.75;;;2.58;;
82005;SDS011;71529;47.484;19.064;2024-03-25T12:35:50;3.90;;;2.63;;
82005;SDS011;71529;47.484;19.064;2024-03-25T12:38:27;3.72;;;2.55;;
82005;SDS011;71529;47.484;19.064;2024-03-25T12:40:54;7.20;;;2.20;;
82005;SDS011;71529;47.484;19.064;2024-03-25T12:43:31;5.05;;;2.05;;
82005;SDS011;71529;47.484;19.064;2024-03-25T12:45:57;3.22;;;2.05;;
82005;SDS011;71529;47.484;19.064;2024-03-25T12:48:23;7.07;;;2.20;;
82005;SDS011;71529;47.484;19.064;2024-03-25T12:50:50;5.70;;;2.60;;
82005;SDS011;71529;47.484;19.064;2024-03-25T12:53:17;2.20;;;2.00;;
82005;SDS011;71529;47.484;19.064;2024-03-25T12:55:47;2.78;;;1.90;;
82005;SDS011;71529;47.484;19.064;2024-03-25T12:58:14;3.97;;;2.17;;
82005;SDS011;71529;47.484;19.064;2024-03-25T13:00:40;2.80;;;1.80;;
82005;SDS011;71529;47.484;19.064;2024-03-25T13:03:07;2.13;;;1.83;;
82005;SDS011;71529;47.484;19.064;2024-03-25T13:05:34;3.25;;;2.17;;
82005;SDS011;71529;47.484;19.064;2024-03-25T13:08:00;3.83;;;1.95;;
82005;SDS011;71529;47.484;19.064;2024-03-25T13:10:27;2.45;;;1.95;;
82005;SDS011;71529;47.484;19.064;2024-03-25T13:12:57;2.20;;;2.00;;
82005;SDS011;71529;47.484;19.064;2024-03-25T13:15:23;4.60;;;2.10;;
82005;SDS011;71529;47.484;19.064;2024-03-25T13:17:50;3.97;;;1.95;;
82005;SDS011;71529;47.484;19.064;2024-03-25T13:20:16;2.58;;;1.95;;
82005;SDS011;71529;47.484;19.064;2024-03-25T13:22:43;2.08;;;1.67;;
82005;SDS011;71529;47.484;19.064;2024-03-25T13:25:10;1.90;;;1.80;;
82005;SDS011;71529;47.484;19.064;2024-03-25T13:27:37;2.05;;;1.85;;
82005;SDS011;71529;47.484;19.064;2024-03-25T13:30:06;5.40;;;2.00;;
82005;SDS011;71529;47.484;19.064;2024-03-25T13:32:33;3.50;;;2.00;;
82005;SDS011;71529;47.484;19.064;2024-03-25T13:35:00;1.58;;;1.48;;
82005;SDS011;71529;47.484;19.064;2024-03-25T13:37:27;2.50;;;2.00;;
82005;SDS011;71529;47.484;19.064;2024-03-25T13:39:53;2.88;;;2.20;;
82005;SDS011;71529;47.484;19.064;2024-03-25T13:42:20;3.08;;;2.22;;
82005;SDS011;71529;47.484;19.064;2024-03-25T13:44:46;3.05;;;1.90;;
82005;SDS011;71529;47.484;19.064;2024-03-25T13:47:15;3.22;;;2.08;;
82005;SDS011;71529;47.484;19.064;2024-03-25T13:49:42;4.10;;;2.10;;
82005;SDS011;71529;47.484;19.064;2024-03-25T13:52:08;3.78;;;2.00;;
82005;SDS011;71529;47.484;19.064;2024-03-25T13:54:35;4.88;;;2.15;;
82005;SDS011;71529;47.484;19.064;2024-03-25T13:57:02;1.92;;;1.83;;
82005;SDS011;71529;47.484;19.064;2024-03-25T13:59:28;8.15;;;1.95;;
82005;SDS011;71529;47.484;19.064;2024-03-25T14:01:55;6.53;;;2.42;;
82005;SDS011;71529;47.484;19.064;2024-03-25T14:04:24;3.42;;;2.20;;
82005;SDS011;71529;47.484;19.064;2024-03-25T14:06:50;4.03;;;2.20;;
82005;SDS011;71529;47.484;19.064;2024-03-25T14:09:23;5.15;;;1.98;;
82005;SDS011;71529;47.484;19.064;2024-03-25T14:11:50;3.75;;;1.70;;
82005;SDS011;71529;47.484;19.064;2024-03-25T14:14:16;1.75;;;1.65;;
82005;SDS011;71529;47.484;19.064;2024-03-25T14:16:42;1.77;;;1.67;;
82005;SDS011;71529;47.484;19.064;2024-03-25T14:19:09;1.20;;;1.20;;
82005;SDS011;71529;47.484;19.064;2024-03-25T14:21:38;1.42;;;1.33;;
82005;SDS011;71529;47.484;19.064;2024-03-25T14:24:05;1.65;;;1.55;;
82005;SDS011;71529;47.484;19.064;2024-03-25T14:26:32;1.27;;;1.17;;
82005;SDS011;71529;47.484;19.064;2024-03-25T14:28:58;3.35;;;1.63;;
82005;SDS011;71529;47.484;19.064;2024-03-25T14:31:25;1.50;;;1.40;;
82005;SDS011;71529;47.484;19.064;2024-03-25T14:33:51;3.28;;;1.75;;